Time;durP1;ratioP1;P1;durP2;ratioP2;P2;SDS_P1;SDS_P2;PMS_P1;PMS_P2;Temp;Humidity;BMP_temperature;BMP_pressure;BME280_temperature;BME280_humidity;BME280_pressure;Samples;Min_cycle;Max_cycle;Signal;HPM_P1;HPM_P2
2021/03/01 00:00:30;;;;;;;;;;;;;;;21.65;23.78;98774.22;5081392;28;1019;-72
2021/03/01 00:02:56;;;;;;;;;;;;;;;21.85;23.46;98778.75;5081193;28;570;-72
2021/03/01 00:05:21;;;;;;;;;;;;;;;21.79;23.50;98779.69;5097231;28;681;-72
2021/03/01 00:07:47;;;;;;;;;;;;;;;21.55;24.08;98778.81;5081048;28;678;-73
2021/03/01 00:10:13;;;;;;;;;;;;;;;21.63;24.02;98782.34;5080727;28;896;-72
2021/03/01 00:12:38;;;;;;;;;;;;;;;21.61;23.97;98773.50;5097028;28;1902;-72
2021/03/01 00:15:05;;;;;;;;;;;;;;;21.47;24.04;98777.31;5081102;28;928;-72
2021/03/01 00:17:30;;;;;;;;;;;;;;;22.54;22.54;98772.81;5080795;28;638;-72
2021/03/01 00:19:56;;;;;;;;;;;;;;;22.42;22.74;98767.75;5080921;28;570;-72
2021/03/01 00:22:21;;;;;;;;;;;;;;;21.90;23.27;98756.84;5080722;28;570;-72
2021/03/01 00:24:46;;;;;;;;;;;;;;;21.61;23.73;98762.97;5079910;28;1028;-72
2021/03/01 00:27:12;;;;;;;;;;;;;;;21.85;23.52;98761.75;5080733;28;787;-72
2021/03/01 00:29:37;;;;;;;;;;;;;;;22.12;22.96;98763.00;5080791;28;928;-72
2021/03/01 00:32:03;;;;;;;;;;;;;;;22.05;23.09;98755.38;5080583;28;670;-72
2021/03/01 00:34:29;;;;;;;;;;;;;;;21.73;23.50;98751.03;5097033;28;1910;-72
2021/03/01 00:36:54;;;;;;;;;;;;;;;21.72;23.71;98740.13;5080513;28;686;-72
2021/03/01 00:39:19;;;;;;;;;;;;;;;21.75;23.50;98745.72;5080386;28;1045;-72
2021/03/01 00:41:45;;;;;;;;;;;;;;;21.68;23.73;98737.34;5080241;28;928;-72
2021/03/01 00:44:10;;;;;;;;;;;;;;;22.03;23.32;98738.03;5080309;28;849;-73
2021/03/01 00:46:36;;;;;;;;;;;;;;;22.08;22.99;98738.34;5080677;28;678;-72
2021/03/01 00:49:01;;;;;;;;;;;;;;;21.83;23.38;98735.91;5080560;28;667;-72
2021/03/01 00:51:27;;;;;;;;;;;;;;;21.62;23.78;98741.09;5096016;28;743;-72
2021/03/01 00:53:52;;;;;;;;;;;;;;;21.97;23.05;98729.22;5079187;28;1982;-71
2021/03/01 00:56:19;;;;;;;;;;;;;;;22.18;22.89;98730.91;5096192;28;1331;-72
2021/03/01 00:58:44;;;;;;;;;;;;;;;22.14;22.77;98733.00;5080011;28;1113;-72
2021/03/01 01:01:10;;;;;;;;;;;;;;;22.12;22.58;98734.66;5080186;28;666;-72
2021/03/01 01:03:35;;;;;;;;;;;;;;;21.75;23.48;98728.72;5080574;28;630;-72
2021/03/01 01:06:04;;;;;;;;;;;;;;;21.53;23.63;98728.25;5079739;28;1171;-72
2021/03/01 01:08:30;;;;;;;;;;;;;;;21.75;23.11;98725.09;5079705;28;977;-72
2021/03/01 01:10:55;;;;;;;;;;;;;;;21.87;22.99;98729.38;5080048;28;810;-72
2021/03/01 01:13:20;;;;;;;;;;;;;;;21.72;23.09;98723.16;5080023;28;1971;-73
2021/03/01 01:15:46;;;;;;;;;;;;;;;21.49;23.33;98718.22;5080039;28;701;-72
2021/03/01 01:18:11;;;;;;;;;;;;;;;21.73;23.33;98717.03;5080268;28;629;-72
2021/03/01 01:20:37;;;;;;;;;;;;;;;22.07;22.91;98710.41;5080418;28;582;-72
2021/03/01 01:23:02;;;;;;;;;;;;;;;22.27;22.61;98711.28;5079802;28;1091;-72
2021/03/01 01:25:28;;;;;;;;;;;;;;;21.97;22.77;98714.25;5079611;28;895;-72
2021/03/01 01:27:53;;;;;;;;;;;;;;;21.69;23.32;98707.00;5079982;28;857;-72
2021/03/01 01:30:20;;;;;;;;;;;;;;;21.97;22.85;98706.53;5079902;28;685;-72
2021/03/01 01:32:45;;;;;;;;;;;;;;;22.28;22.43;98712.91;5079799;28;1918;-72
2021/03/01 01:35:11;;;;;;;;;;;;;;;21.95;22.77;98705.34;5062107;28;876;-72
2021/03/01 01:37:37;;;;;;;;;;;;;;;21.54;23.23;98703.56;5079840;28;974;-72
2021/03/01 01:40:02;;;;;;;;;;;;;;;21.50;23.75;98700.00;5079817;28;818;-72
2021/03/01 01:42:28;;;;;;;;;;;;;;;21.88;23.03;98702.66;5079784;28;877;-72
2021/03/01 01:44:53;;;;;;;;;;;;;;;22.62;21.98;98703.34;5079956;28;653;-72
2021/03/01 01:47:19;;;;;;;;;;;;;;;22.27;22.56;98705.63;5079642;28;686;-72
2021/03/01 01:49:44;;;;;;;;;;;;;;;21.79;23.10;98695.50;5080027;28;678;-72
2021/03/01 01:52:10;;;;;;;;;;;;;;;20.64;24.83;98698.28;5079745;28;908;-72
2021/03/01 01:54:35;;;;;;;;;;;;;;;21.72;23.25;98692.78;5079594;28;1906;-72
2021/03/01 01:57:01;;;;;;;;;;;;;;;21.72;23.36;98695.63;5095989;28;918;-72
2021/03/01 01:59:26;;;;;;;;;;;;;;;21.67;23.47;98684.78;5079926;28;1126;-72
2021/03/01 02:01:52;;;;;;;;;;;;;;;21.74;23.28;98700.84;5079116;28;1421;-72
2021/03/01 02:04:39;;;;;;;;;;;;;;;21.64;23.34;98699.78;5079534;28;672;-72
2021/03/01 02:07:10;;;;;;;;;;;;;;;21.92;23.04;98694.91;5082792;28;923;-72
2021/03/01 02:09:39;;;;;;;;;;;;;;;21.97;22.68;98705.75;5083467;28;848;-72
2021/03/01 02:12:04;;;;;;;;;;;;;;;21.70;23.11;98697.25;5083524;28;682;-72
2021/03/01 02:14:56;;;;;;;;;;;;;;;21.57;23.32;98694.25;5083205;28;1906;-72
2021/03/01 02:17:22;;;;;;;;;;;;;;;21.53;23.36;98688.63;5082558;28;1023;-72
2021/03/01 02:19:47;;;;;;;;;;;;;;;21.89;22.84;98681.59;5083209;28;642;-72
2021/03/01 02:22:13;;;;;;;;;;;;;;;22.05;22.82;98679.66;5082711;28;857;-72
2021/03/01 02:24:43;;;;;;;;;;;;;;;22.24;22.36;98686.66;5083013;28;912;-72
2021/03/01 02:27:08;;;;;;;;;;;;;;;22.12;22.61;98684.44;5099050;28;892;-72
2021/03/01 02:29:34;;;;;;;;;;;;;;;21.91;22.71;98684.78;5083081;28;590;-72
2021/03/01 02:32:00;;;;;;;;;;;;;;;21.75;23.02;98694.75;5099071;28;645;-72
2021/03/01 02:34:26;;;;;;;;;;;;;;;21.56;23.29;98681.31;5082665;28;1961;-72
2021/03/01 02:36:55;;;;;;;;;;;;;;;21.71;23.33;98681.88;5098867;28;1050;-72
2021/03/01 02:39:22;;;;;;;;;;;;;;;21.73;23.18;98677.38;5098825;28;890;-72
2021/03/01 02:41:47;;;;;;;;;;;;;;;21.53;23.43;98682.16;5099098;28;983;-72
2021/03/01 02:44:13;;;;;;;;;;;;;;;21.66;23.39;98674.69;5082651;28;610;-72
2021/03/01 02:46:38;;;;;;;;;;;;;;;21.68;23.29;98666.53;5098932;28;629;-72
2021/03/01 02:49:06;;;;;;;;;;;;;;;21.58;23.40;98673.19;5082582;28;744;-72
2021/03/01 02:51:32;;;;;;;;;;;;;;;21.48;23.51;98674.16;5082220;28;896;-73
2021/03/01 02:53:57;;;;;;;;;;;;;;;22.10;22.80;98675.53;5098455;28;1905;-72
2021/03/01 02:56:22;;;;;;;;;;;;;;;22.53;21.99;98675.56;5082466;28;1111;-72
2021/03/01 02:58:49;;;;;;;;;;;;;;;22.60;21.85;98674.63;5098443;28;1124;-73
2021/03/01 03:01:14;;;;;;;;;;;;;;;22.26;22.23;98674.88;5098549;28;690;-71
2021/03/01 03:03:40;;;;;;;;;;;;;;;21.86;23.04;98677.56;5082482;28;701;-72
2021/03/01 03:06:09;;;;;;;;;;;;;;;21.64;23.15;98676.31;5081934;28;970;-72
2021/03/01 03:08:34;;;;;;;;;;;;;;;21.76;22.85;98668.03;5098171;28;878;-72
2021/03/01 03:11:00;;;;;;;;;;;;;;;21.96;22.95;98676.59;5098493;28;1092;-72
2021/03/01 03:13:25;;;;;;;;;;;;;;;21.94;22.90;98681.09;5098581;28;1901;-72
2021/03/01 03:15:52;;;;;;;;;;;;;;;21.79;23.09;98672.03;5082387;28;681;-72
2021/03/01 03:18:17;;;;;;;;;;;;;;;21.49;23.32;98670.88;5081727;28;625;-72
2021/03/01 03:20:43;;;;;;;;;;;;;;;21.95;22.71;98675.00;5081944;28;942;-72
2021/03/01 03:23:08;;;;;;;;;;;;;;;22.14;22.46;98670.66;5081657;28;882;-72
2021/03/01 03:25:34;;;;;;;;;;;;;;;22.39;22.20;98677.88;5081931;28;848;-71
2021/03/01 03:27:59;;;;;;;;;;;;;;;22.11;22.51;98665.81;5081785;28;726;-72
2021/03/01 03:30:25;;;;;;;;;;;;;;;22.38;22.14;98667.75;5082067;28;682;-72
2021/03/01 03:32:51;;;;;;;;;;;;;;;21.90;22.81;98674.69;5082138;28;1971;-72
2021/03/01 03:35:16;;;;;;;;;;;;;;;21.62;23.06;98679.59;5097879;28;1025;-72
2021/03/01 03:37:49;;;;;;;;;;;;;;;21.52;23.24;98674.91;5097578;28;828;-72
2021/03/01 03:40:14;;;;;;;;;;;;;;;21.82;22.72;98671.97;5097916;28;988;-72
2021/03/01 03:42:40;;;;;;;;;;;;;;;22.01;22.87;98675.28;5097823;28;657;-72
2021/03/01 03:45:06;;;;;;;;;;;;;;;22.20;22.27;98677.41;5097732;28;645;-71
2021/03/01 03:47:32;;;;;;;;;;;;;;;21.64;22.99;98665.78;5081429;28;646;-71
2021/03/01 03:49:57;;;;;;;;;;;;;;;21.59;22.92;98669.13;5080662;28;1134;-72
2021/03/01 03:52:27;;;;;;;;;;;;;;;21.69;22.95;98667.34;5097499;28;977;-71
2021/03/01 03:54:53;;;;;;;;;;;;;;;21.64;23.09;98665.00;5097478;28;1910;-72
2021/03/01 03:57:20;;;;;;;;;;;;;;;21.48;23.26;98668.47;5097386;28;649;-72
2021/03/01 03:59:45;;;;;;;;;;;;;;;21.55;23.34;98677.69;5097758;28;994;-72
2021/03/01 04:02:11;;;;;;;;;;;;;;;22.25;22.28;98671.25;5081099;28;590;-72
2021/03/01 04:04:36;;;;;;;;;;;;;;;22.47;21.78;98677.31;5097106;28;1269;-71
2021/03/01 04:07:02;;;;;;;;;;;;;;;22.14;22.36;98681.97;5097140;28;852;-72
2021/03/01 04:09:28;;;;;;;;;;;;;;;21.58;22.97;98678.84;5097072;28;991;-72
2021/03/01 04:11:53;;;;;;;;;;;;;;;21.65;22.92;98678.72;5081221;28;666;-71
2021/03/01 04:14:19;;;;;;;;;;;;;;;22.05;22.42;98678.88;5097021;28;1970;-71
2021/03/01 04:16:45;;;;;;;;;;;;;;;21.83;22.71;98679.25;5081340;28;693;-71
2021/03/01 04:19:10;;;;;;;;;;;;;;;21.89;22.46;98676.72;5096653;28;1074;-72
2021/03/01 04:21:39;;;;;;;;;;;;;;;22.14;22.13;98681.97;5080585;28;857;-71
2021/03/01 04:24:04;;;;;;;;;;;;;;;21.52;23.19;98677.72;5097013;28;865;-72
2021/03/01 04:26:30;;;;;;;;;;;;;;;22.03;22.43;98681.34;5096856;28;650;-71
2021/03/01 04:28:56;;;;;;;;;;;;;;;21.76;22.94;98676.53;5079847;28;578;-72
2021/03/01 04:31:21;;;;;;;;;;;;;;;22.04;22.28;98680.09;5096768;28;733;-72
2021/03/01 04:33:47;;;;;;;;;;;;;;;21.87;22.44;98678.41;5080156;28;1967;-71
2021/03/01 04:36:12;;;;;;;;;;;;;;;22.22;22.08;98688.31;5096395;28;909;-72
2021/03/01 04:38:37;;;;;;;;;;;;;;;21.93;22.37;98682.34;5096990;28;1439;-72
2021/03/01 04:41:03;;;;;;;;;;;;;;;21.72;22.77;98677.81;5096972;28;622;-72
2021/03/01 04:43:29;;;;;;;;;;;;;;;21.67;22.93;98681.94;5096846;28;646;-72
2021/03/01 04:45:54;;;;;;;;;;;;;;;21.78;22.86;98682.56;5080770;28;637;-72
2021/03/01 04:48:20;;;;;;;;;;;;;;;21.79;22.77;98689.81;5096409;28;948;-72
2021/03/01 04:50:46;;;;;;;;;;;;;;;21.72;22.58;98677.81;5096783;28;847;-73
2021/03/01 04:53:11;;;;;;;;;;;;;;;21.72;22.99;98689.94;5096472;28;1905;-72
2021/03/01 04:55:37;;;;;;;;;;;;;;;21.59;23.22;98691.78;5096537;28;634;-72
2021/03/01 04:58:02;;;;;;;;;;;;;;;21.82;22.52;98691.81;5096294;28;1038;-71
2021/03/01 05:00:28;;;;;;;;;;;;;;;22.04;22.59;98691.44;5080485;28;752;-71
2021/03/01 05:02:53;;;;;;;;;;;;;;;21.64;23.01;98694.13;5080190;28;852;-72
2021/03/01 05:05:19;;;;;;;;;;;;;;;21.82;22.76;98702.34;5096165;28;946;-73
2021/03/01 05:07:44;;;;;;;;;;;;;;;21.98;22.63;98701.69;5096372;28;1273;-73
2021/03/01 05:10:10;;;;;;;;;;;;;;;22.03;22.44;98701.19;5080143;28;626;-73
2021/03/01 05:12:35;;;;;;;;;;;;;;;21.76;22.97;98696.38;5095935;28;1917;-73
2021/03/01 05:15:01;;;;;;;;;;;;;;;21.68;23.00;98699.72;5080244;28;622;-72
2021/03/01 05:17:26;;;;;;;;;;;;;;;21.76;22.61;98702.03;5079717;28;882;-72
2021/03/01 05:19:52;;;;;;;;;;;;;;;21.80;22.75;98702.75;5079782;28;895;-73
2021/03/01 05:22:17;;;;;;;;;;;;;;;21.54;23.02;98706.41;5080087;28;1036;-73
2021/03/01 05:24:43;;;;;;;;;;;;;;;21.37;23.56;98710.31;5080689;28;721;-73
2021/03/01 05:27:08;;;;;;;;;;;;;;;21.72;22.76;98712.63;5079865;28;633;-73
2021/03/01 05:29:34;;;;;;;;;;;;;;;21.66;22.64;98717.16;5079851;28;594;-73
2021/03/01 05:31:59;;;;;;;;;;;;;;;21.52;22.87;98720.19;5053659;28;1087;-73
2021/03/01 05:34:25;;;;;;;;;;;;;;;22.33;22.20;98726.59;5050974;28;1959;-73
2021/03/01 05:36:50;;;;;;;;;;;;;;;22.61;21.44;98727.28;5051233;28;1164;-73
2021/03/01 05:39:16;;;;;;;;;;;;;;;22.08;22.28;98720.53;5058386;28;1202;-73
2021/03/01 05:41:41;;;;;;;;;;;;;;;21.47;23.38;98713.00;5062034;28;1180;-72
2021/03/01 05:44:07;;;;;;;;;;;;;;;21.57;23.09;98719.72;5044934;28;1155;-73
2021/03/01 05:46:33;;;;;;;;;;;;;;;22.00;22.46;98727.53;5063327;28;1214;-73
2021/03/01 05:48:58;;;;;;;;;;;;;;;22.59;21.91;98738.28;5063228;28;1201;-73
2021/03/01 05:51:24;;;;;;;;;;;;;;;22.69;21.43;98733.59;5063130;28;1316;-73
2021/03/01 05:53:50;;;;;;;;;;;;;;;22.04;22.22;98733.94;5063285;28;1910;-73
2021/03/01 05:56:15;;;;;;;;;;;;;;;21.90;22.37;98734.97;5063262;28;1186;-73
2021/03/01 05:58:41;;;;;;;;;;;;;;;21.77;22.63;98736.81;5078795;28;1149;-73
2021/03/01 06:01:07;;;;;;;;;;;;;;;21.99;22.45;98745.78;5060981;28;1131;-73
2021/03/01 06:03:35;;;;;;;;;;;;;;;22.00;22.63;98738.88;5078497;28;1170;-73
2021/03/01 06:06:01;;;;;;;;;;;;;;;21.94;22.68;98743.44;5062850;28;1154;-73
2021/03/01 06:08:27;;;;;;;;;;;;;;;21.74;22.70;98749.78;5062913;28;1167;-73
2021/03/01 06:10:59;;;;;;;;;;;;;;;22.06;22.27;98759.81;5062826;28;1281;-72
2021/03/01 06:13:25;;;;;;;;;;;;;;;21.87;22.65;98749.22;5068249;28;1906;-73
2021/03/01 06:15:52;;;;;;;;;;;;;;;22.21;22.08;98766.88;5088456;28;1329;-73
2021/03/01 06:18:17;;;;;;;;;;;;;;;22.38;22.01;98767.00;5087098;28;1245;-73
2021/03/01 06:20:43;;;;;;;;;;;;;;;22.08;22.26;98763.03;5073221;28;1191;-73
2021/03/01 06:23:08;;;;;;;;;;;;;;;21.79;22.44;98768.34;5072923;28;1341;-73
2021/03/01 06:25:34;;;;;;;;;;;;;;;21.58;22.75;98775.13;5072094;28;1317;-73
2021/03/01 06:28:05;;;;;;;;;;;;;;;21.68;22.82;98767.72;5073458;28;1369;-73
2021/03/01 06:30:37;;;;;;;;;;;;;;;21.62;23.00;98770.22;5072896;28;1368;-73
2021/03/01 06:33:05;;;;;;;;;;;;;;;21.62;22.96;98775.88;5067910;28;1902;-72
2021/03/01 06:35:32;;;;;;;;;;;;;;;21.59;22.66;98780.34;5073088;28;1278;-73
2021/03/01 06:38:13;;;;;;;;;;;;;;;21.60;22.73;98775.50;5071305;28;1301;-73
2021/03/01 06:40:39;;;;;;;;;;;;;;;21.44;23.03;98780.97;5068034;28;1448;-71
2021/03/01 06:43:11;;;;;;;;;;;;;;;21.54;22.92;98777.19;5062189;28;1064;-71
2021/03/01 06:45:37;;;;;;;;;;;;;;;21.55;22.89;98778.81;5067706;28;1265;-73
2021/03/01 06:48:02;;;;;;;;;;;;;;;21.48;23.16;98776.88;5071895;28;1242;-73
2021/03/01 06:50:32;;;;;;;;;;;;;;;21.47;23.31;98785.81;5070929;28;1314;-71
2021/03/01 06:53:02;;;;;;;;;;;;;;;21.77;22.51;98782.94;5066952;28;1898;-73
2021/03/01 06:55:28;;;;;;;;;;;;;;;22.24;21.96;98783.03;5067521;28;1234;-73
2021/03/01 06:57:54;;;;;;;;;;;;;;;22.60;21.81;98782.41;5073036;28;1340;-73
2021/03/01 07:00:23;;;;;;;;;;;;;;;22.43;22.06;98787.16;5087323;28;1250;-73
2021/03/01 07:02:49;;;;;;;;;;;;;;;21.97;22.48;98783.06;5070469;28;1269;-73
2021/03/01 07:05:14;;;;;;;;;;;;;;;21.64;22.74;98779.06;5072903;28;1238;-73
2021/03/01 07:07:43;;;;;;;;;;;;;;;21.57;23.23;98779.19;5071818;28;1258;-73
2021/03/01 07:10:09;;;;;;;;;;;;;;;21.44;23.24;98786.66;5070685;28;1364;-73
2021/03/01 07:12:36;;;;;;;;;;;;;;;21.56;23.09;98781.22;5072536;28;1261;-73
2021/03/01 07:15:01;;;;;;;;;;;;;;;21.43;23.34;98787.88;5070340;28;2031;-73
2021/03/01 07:17:27;;;;;;;;;;;;;;;21.51;23.27;98787.38;5070360;28;1253;-73
2021/03/01 07:19:52;;;;;;;;;;;;;;;22.05;22.41;98775.22;5070540;28;1166;-73
2021/03/01 07:22:19;;;;;;;;;;;;;;;22.40;21.82;98773.06;5072039;28;1265;-71
2021/03/01 07:24:44;;;;;;;;;;;;;;;22.43;21.66;98772.19;5072079;28;1242;-72
2021/03/01 07:27:10;;;;;;;;;;;;;;;21.99;22.48;98776.94;5086418;28;1297;-72
2021/03/01 07:29:37;;;;;;;;;;;;;;;21.77;22.60;98777.28;5088263;28;1265;-71
2021/03/01 07:32:03;;;;;;;;;;;;;;;21.71;23.02;98776.16;5071426;28;1243;-71
2021/03/01 07:34:29;;;;;;;;;;;;;;;21.54;22.88;98788.53;5069984;28;1905;-72
2021/03/01 07:36:58;;;;;;;;;;;;;;;21.48;22.88;98782.53;5072034;28;1305;-73
2021/03/01 07:39:26;;;;;;;;;;;;;;;21.91;22.80;98786.78;5087332;28;1230;-72
2021/03/01 07:41:52;;;;;;;;;;;;;;;22.50;21.93;98808.94;5069960;28;1385;-73
2021/03/01 07:44:33;;;;;;;;;;;;;;;22.59;21.68;98787.28;5086692;28;1289;-73
2021/03/01 07:46:59;;;;;;;;;;;;;;;21.99;22.35;98811.75;5067081;28;1290;-73
2021/03/01 07:49:37;;;;;;;;;;;;;;;21.50;23.38;98797.09;5069198;28;1207;-72
2021/03/01 07:52:02;;;;;;;;;;;;;;;21.69;22.93;98792.75;5061400;28;567;-73
2021/03/01 07:54:48;;;;;;;;;;;;;;;21.49;23.35;98798.28;5061391;28;1906;-72
2021/03/01 07:57:13;;;;;;;;;;;;;;;21.43;23.59;98796.38;5061306;28;614;-73
2021/03/01 07:59:39;;;;;;;;;;;;;;;22.05;22.52;98797.91;5060796;28;1109;-72
2021/03/01 08:02:08;;;;;;;;;;;;;;;22.56;21.96;98798.69;5076824;28;845;-72
2021/03/01 08:04:34;;;;;;;;;;;;;;;22.73;21.57;98800.41;5060914;28;1113;-73
2021/03/01 08:07:00;;;;;;;;;;;;;;;22.05;22.67;98795.06;5061171;28;710;-73
2021/03/01 08:10:01;;;;;;;;;;;;;;;21.77;23.02;98794.28;5061388;28;670;-72
2021/03/01 08:12:29;;;;;;;;;;;;;;;21.55;23.48;98798.63;5000158;28;1144;-73
2021/03/01 08:14:58;;;;;;;;;;;;;;;21.61;23.25;98796.94;5049325;28;1985;-72
2021/03/01 08:17:28;;;;;;;;;;;;;;;21.62;23.49;98786.41;5060557;28;841;-73
2021/03/01 08:19:54;;;;;;;;;;;;;;;21.91;23.14;98786.78;5060942;28;931;-72
2021/03/01 08:22:19;;;;;;;;;;;;;;;21.74;23.08;98800.78;5060790;28;654;-72
2021/03/01 08:24:48;;;;;;;;;;;;;;;21.75;23.07;98793.88;5060760;28;675;-72
2021/03/01 08:27:23;;;;;;;;;;;;;;;21.54;23.24;98795.00;5060654;28;607;-73
2021/03/01 08:30:07;;;;;;;;;;;;;;;21.45;23.68;98785.41;5061100;28;619;-73
2021/03/01 08:32:32;;;;;;;;;;;;;;;21.61;23.56;98796.16;5060620;28;681;-74
2021/03/01 08:35:18;;;;;;;;;;;;;;;21.75;23.32;98791.06;5075829;28;1906;-74
2021/03/01 08:37:46;;;;;;;;;;;;;;;22.24;22.38;98794.38;5060105;28;1105;-74
2021/03/01 08:40:18;;;;;;;;;;;;;;;21.94;22.89;98785.94;5060689;28;672;-73
2021/03/01 08:42:44;;;;;;;;;;;;;;;21.46;23.79;98801.19;5060919;28;705;-72
2021/03/01 08:45:10;;;;;;;;;;;;;;;20.19;23.65;98590.97;5060428;28;673;-73
2021/03/01 08:47:44;;;;;;;;;;;;;;;21.91;23.39;98800.94;5060725;28;681;-71
2021/03/01 08:50:10;;;;;;;;;;;;;;;22.12;23.03;98803.47;5060046;28;1071;-73
2021/03/01 08:52:35;;;;;;;;;;;;;;;22.16;22.89;98809.88;5060428;28;902;-73
2021/03/01 08:55:07;;;;;;;;;;;;;;;21.79;23.48;98808.81;5060480;28;1898;-72
2021/03/01 08:57:33;;;;;;;;;;;;;;;21.71;23.50;98809.31;5060232;28;765;-72
2021/03/01 09:00:16;;;;;;;;;;;;;;;22.43;22.56;98818.34;5060121;28;1140;-73
2021/03/01 09:02:42;;;;;;;;;;;;;;;22.25;23.01;98815.03;5060110;28;639;-73
2021/03/01 09:05:07;;;;;;;;;;;;;;;21.84;23.52;98816.81;5060099;28;1018;-72
2021/03/01 09:07:42;;;;;;;;;;;;;;;21.40;23.92;98819.84;5060171;28;887;-73
2021/03/01 09:10:08;;;;;;;;;;;;;;;21.90;23.52;98816.34;5060124;28;883;-73
2021/03/01 09:12:34;;;;;;;;;;;;;;;21.74;23.65;98817.78;5060117;28;610;-73
2021/03/01 09:14:59;;;;;;;;;;;;;;;21.74;23.81;98817.78;5075321;28;1981;-74
2021/03/01 09:17:24;;;;;;;;;;;;;;;21.62;23.80;98818.38;5060027;28;629;-73
2021/03/01 09:19:50;;;;;;;;;;;;;;;21.78;23.81;98821.38;5076003;28;901;-72
2021/03/01 09:22:15;;;;;;;;;;;;;;;22.04;23.22;98813.31;5076010;28;878;-73
2021/03/01 09:24:41;;;;;;;;;;;;;;;21.43;24.15;98819.81;5060169;28;941;-71
2021/03/01 09:27:06;;;;;;;;;;;;;;;22.53;22.67;98822.22;5059906;28;650;-71
2021/03/01 09:29:32;;;;;;;;;;;;;;;22.05;23.14;98815.69;5059909;28;653;-73
2021/03/01 09:31:58;;;;;;;;;;;;;;;21.81;23.68;98806.38;5059962;28;701;-72
2021/03/01 09:34:25;;;;;;;;;;;;;;;21.63;24.04;98819.97;5059714;28;1972;-73
2021/03/01 09:36:51;;;;;;;;;;;;;;;21.80;23.66;98827.41;5059622;28;857;-73
2021/03/01 09:39:17;;;;;;;;;;;;;;;22.16;23.33;98821.22;5059823;28;966;-72
2021/03/01 09:41:43;;;;;;;;;;;;;;;22.18;23.35;98824.44;5059770;28;649;-72
2021/03/01 09:44:08;;;;;;;;;;;;;;;22.18;23.16;98815.94;5059709;28;602;-72
2021/03/01 09:46:34;;;;;;;;;;;;;;;22.18;23.35;98812.31;5060259;28;736;-71
2021/03/01 09:49:08;;;;;;;;;;;;;;;21.89;23.86;98817.56;5075311;28;1006;-72
2021/03/01 09:51:34;;;;;;;;;;;;;;;21.63;23.81;98822.78;5059316;28;981;-72
2021/03/01 09:54:04;;;;;;;;;;;;;;;22.06;23.38;98816.50;5075349;28;1897;-72
2021/03/01 09:59:42;;;;;;;;;;;;;;;21.65;23.84;98826.00;5059454;28;1036;-72
2021/03/01 10:02:08;;;;;;;;;;;;;;;21.79;24.02;98817.31;5059667;28;846;-71
2021/03/01 10:04:33;;;;;;;;;;;;;;;21.72;24.15;98830.78;5059147;28;834;-72
2021/03/01 10:07:13;;;;;;;;;;;;;;;21.56;24.30;98828.56;5059497;28;833;-72
2021/03/01 10:09:39;;;;;;;;;;;;;;;22.04;23.77;98830.31;5075454;28;1112;-72
2021/03/01 10:12:04;;;;;;;;;;;;;;;22.60;22.86;98836.31;5059778;28;674;-72
2021/03/01 10:14:30;;;;;;;;;;;;;;;22.64;22.64;98834.22;5075296;28;1985;-72
2021/03/01 10:16:55;;;;;;;;;;;;;;;22.00;23.68;98835.22;5059410;28;599;-72
2021/03/01 10:19:24;;;;;;;;;;;;;;;21.67;24.21;98837.72;5074672;28;1220;-73
2021/03/01 10:21:49;;;;;;;;;;;;;;;21.60;24.16;98843.47;5059144;28;847;-72
2021/03/01 10:24:16;;;;;;;;;;;;;;;21.59;24.47;98845.50;5059243;28;986;-72
2021/03/01 10:26:50;;;;;;;;;;;;;;;21.57;24.30;98858.47;5060230;28;614;-73
2021/03/01 10:29:15;;;;;;;;;;;;;;;21.59;24.29;98856.03;5062961;28;681;-71
2021/03/01 10:31:41;;;;;;;;;;;;;;;21.54;24.50;98845.16;5063027;28;877;-72
2021/03/01 10:34:16;;;;;;;;;;;;;;;21.45;24.78;98850.53;5062521;28;1922;-71
2021/03/01 10:36:53;;;;;;;;;;;;;;;22.07;23.86;98854.94;5062496;28;975;-72
2021/03/01 10:39:29;;;;;;;;;;;;;;;22.46;23.08;98860.03;5062756;28;665;-71
2021/03/01 10:42:18;;;;;;;;;;;;;;;22.73;22.92;98859.16;5061529;28;1183;-72
2021/03/01 10:44:54;;;;;;;;;;;;;;;22.14;23.73;98857.72;5055171;28;1162;-72
2021/03/01 10:47:29;;;;;;;;;;;;;;;21.85;24.06;98868.63;5062675;28;653;-72
2021/03/01 10:49:58;;;;;;;;;;;;;;;21.71;24.10;98858.31;5062343;28;913;-72
2021/03/01 10:52:24;;;;;;;;;;;;;;;21.57;24.33;98864.16;5062549;28;820;-72
2021/03/01 10:54:50;;;;;;;;;;;;;;;21.63;24.53;98873.78;5062639;28;1961;-71
2021/03/01 10:57:15;;;;;;;;;;;;;;;21.54;24.49;98874.28;5062488;28;698;-72
2021/03/01 10:59:41;;;;;;;;;;;;;;;21.53;24.42;98880.38;5062367;28;942;-71
2021/03/01 11:02:06;;;;;;;;;;;;;;;21.46;24.73;98877.63;5062570;28;679;-72
2021/03/01 11:04:33;;;;;;;;;;;;;;;21.88;24.29;98881.16;5062061;28;998;-72
2021/03/01 11:06:58;;;;;;;;;;;;;;;22.31;23.33;98884.19;5062135;28;911;-72
2021/03/01 11:09:24;;;;;;;;;;;;;;;22.57;23.11;98885.38;5062084;28;974;-72
2021/03/01 11:11:49;;;;;;;;;;;;;;;22.33;23.33;98885.38;5062225;28;668;-72
2021/03/01 11:14:15;;;;;;;;;;;;;;;21.94;24.13;98893.59;5062150;28;1906;-72
2021/03/01 11:16:41;;;;;;;;;;;;;;;21.80;24.06;98881.22;5062625;28;659;-72
2021/03/01 11:19:07;;;;;;;;;;;;;;;21.78;24.37;98886.53;5062299;28;988;-72
2021/03/01 11:21:32;;;;;;;;;;;;;;;21.76;24.34;98888.16;5061853;28;915;-72
2021/03/01 11:23:58;;;;;;;;;;;;;;;21.56;24.72;98886.00;5062163;28;837;-72
2021/03/01 11:26:24;;;;;;;;;;;;;;;21.63;24.66;98890.78;5061862;28;666;-72
2021/03/01 11:28:49;;;;;;;;;;;;;;;21.60;24.46;98891.59;5061976;28;718;-72
2021/03/01 11:31:15;;;;;;;;;;;;;;;21.59;24.50;98895.66;5061778;28;666;-72
2021/03/01 11:33:40;;;;;;;;;;;;;;;21.50;24.87;98886.88;5061759;28;1898;-71
2021/03/01 11:36:06;;;;;;;;;;;;;;;21.46;24.84;98886.13;5061562;28;846;-72
2021/03/01 11:38:32;;;;;;;;;;;;;;;21.43;25.00;98881.31;5061046;28;944;-72
2021/03/01 11:40:58;;;;;;;;;;;;;;;21.36;24.88;98881.41;5061670;28;646;-72
2021/03/01 11:43:23;;;;;;;;;;;;;;;21.65;24.61;98882.63;5061577;28;662;-72
2021/03/01 11:45:49;;;;;;;;;;;;;;;22.12;24.13;98888.50;5077615;28;595;-72
2021/03/01 11:48:14;;;;;;;;;;;;;;;22.43;23.41;98892.06;5061070;28;1075;-72
2021/03/01 11:50:41;;;;;;;;;;;;;;;22.52;23.07;98888.69;5061484;28;940;-72
2021/03/01 11:53:06;;;;;;;;;;;;;;;21.94;23.97;98893.59;5061676;28;1909;-71
2021/03/01 11:55:32;;;;;;;;;;;;;;;21.72;24.38;98890.25;5061565;28;614;-71
2021/03/01 11:57:57;;;;;;;;;;;;;;;21.75;24.35;98897.91;5061501;28;648;-73
2021/03/01 12:00:23;;;;;;;;;;;;;;;21.93;24.24;98895.63;5061188;28;1137;-72
2021/03/01 12:02:48;;;;;;;;;;;;;;;22.44;23.47;98907.09;5060861;28;870;-71
2021/03/01 12:05:14;;;;;;;;;;;;;;;22.68;23.20;98905.84;5060866;28;883;-72
2021/03/01 12:07:39;;;;;;;;;;;;;;;22.03;24.01;98908.06;5061062;28;1098;-72
2021/03/01 12:10:05;;;;;;;;;;;;;;;21.72;24.29;98893.91;5061337;28;611;-72
2021/03/01 12:12:31;;;;;;;;;;;;;;;21.65;24.56;98904.50;5076939;28;710;-72
2021/03/01 12:14:56;;;;;;;;;;;;;;;21.59;24.37;98902.13;5061319;28;1980;-71
2021/03/01 12:17:22;;;;;;;;;;;;;;;21.38;24.76;98901.59;5060585;28;957;-71
2021/03/01 12:19:47;;;;;;;;;;;;;;;21.39;25.10;98908.84;5060902;28;923;-72
2021/03/01 12:22:12;;;;;;;;;;;;;;;21.83;24.34;98911.56;5060955;28;917;-71
2021/03/01 12:24:38;;;;;;;;;;;;;;;22.31;23.66;98912.53;5060856;28;638;-72
2021/03/01 12:27:03;;;;;;;;;;;;;;;22.58;23.14;98909.66;5060772;28;685;-73
2021/03/01 12:29:29;;;;;;;;;;;;;;;22.72;23.16;98906.59;5060881;28;618;-73
2021/03/01 12:31:54;;;;;;;;;;;;;;;22.74;22.76;98912.66;5060339;28;1084;-73
2021/03/01 12:34:20;;;;;;;;;;;;;;;21.91;24.07;98917.13;5060519;28;1910;-73
2021/03/01 12:36:45;;;;;;;;;;;;;;;21.81;24.27;98914.00;5061055;28;929;-71
2021/03/01 12:39:11;;;;;;;;;;;;;;;21.70;24.25;98910.50;5060603;28;701;-71
2021/03/01 12:41:36;;;;;;;;;;;;;;;21.73;24.28;98911.69;5060537;28;769;-71
2021/03/01 12:44:02;;;;;;;;;;;;;;;21.73;24.63;98918.16;5060897;28;607;-71
2021/03/01 12:46:27;;;;;;;;;;;;;;;21.55;24.58;98911.91;5060091;28;1043;-73
2021/03/01 12:48:53;;;;;;;;;;;;;;;21.53;24.84;98920.03;5060082;28;816;-71
2021/03/01 12:51:18;;;;;;;;;;;;;;;21.56;24.63;98919.19;5059828;28;980;-73
2021/03/01 12:53:44;;;;;;;;;;;;;;;22.22;23.89;98930.06;5060253;28;1910;-71
2021/03/01 12:56:09;;;;;;;;;;;;;;;22.49;23.21;98927.25;5060464;28;903;-72
2021/03/01 12:58:35;;;;;;;;;;;;;;;22.55;23.30;98922.69;5060149;28;1045;-73
2021/03/01 13:01:00;;;;;;;;;;;;;;;22.06;23.81;98919.31;5060052;28;931;-72
2021/03/01 13:03:26;;;;;;;;;;;;;;;21.84;24.29;98921.66;5059790;28;951;-71